TNCM

Details ICAO TNCM (SXM)
Name Princess Juliana Int'l
Region Caribbean Netherlands, Aruba, Curaçao, Sint Maarten
Timezone Unknown
Plans Departing 3147
Arriving 4756
Stats Elevation 12 ft / 4 m (AMSL)
Location 18.040900° -63.108900°
Runways 1
Magnetic Variation 14.352° W
Sunrise 2018-12-13 10:36:12 UTC / 2018-12-13 10:36:12 Local
Sunset 2018-12-13 21:39:50 UTC / 2018-12-13 21:39:50 Local
Advertisement - Login to hide

Runways

ID Width Length Bearing (true/mag) Surface Threshold Overrun Markings Lighting
10 148 ft / 45 m 7,553 ft / 2,302 m 81.44° / 95.79° ASPHALT 331 ft / 101 m 164 ft / 50 m PREC-APP EDGE THRESHOLD REIL-OMNI
28 148 ft / 45 m 7,553 ft / 2,302 m 261.45° / 275.80° ASPHALT 0 ft / 0 m 200 ft / 61 m APP EDGE THRESHOLD

Map

Weather


0- 5 10 15 20 25 30 35+ Temperature / °C

Clouds and Precipitation
Forecast for 2018-12-13 18:00 UTC. Updated 5 hours ago

Ground ~20,000 ft ~40,000 ft Winds

METAR

TNCM 132000Z 07015KT 040V120 9999 SCT019 28/21 Q1017 NOSIG RMK A3006

TAF

TAF TNCM 131737Z 1318/1418 09014G22KT P6SM VCSH SCT019 BKN035 FM132200 08011KT P6SM FEW018 SCT050 PROB30 1409/1413 VRB12G19KT -SHRA BKN018 FM141430 10015KT P6SM FEW022 SCT040

Frequencies

Recorded 127.65 MHz ATIS
Tower 118.70 MHz JULIANA TWR
Departure 128.95 MHz JULIANA DEP
Approach 128.95 MHz JULIANA APP
Warning: Do not use this data for real-world aviation or navigation. No guarantee of current accuracy is given.